Time;durP1;ratioP1;P1;durP2;ratioP2;P2;SDS_P1;SDS_P2;PMS_P1;PMS_P2;Temp;Humidity;BMP_temperature;BMP_pressure;BME280_temperature;BME280_humidity;BME280_pressure;Samples;Min_cycle;Max_cycle;Signal;HPM_P1;HPM_P2
2024/02/28 00:02:15;;;;;;;;;44.20;36.00;;;;;16.54;100.00;98649.44;6066061;28;96792;-55
2024/02/28 00:05:18;;;;;;;;;45.20;37.00;;;;;16.52;100.00;98649.69;6063470;28;96292;-53
2024/02/28 00:08:22;;;;;;;;;45.00;35.33;;;;;16.54;100.00;98650.25;6026355;29;96516;-53
2024/02/28 00:11:26;;;;;;;;;42.60;33.40;;;;;16.55;100.00;98648.38;6026406;29;96364;-53
2024/02/28 00:14:29;;;;;;;;;44.20;35.00;;;;;16.54;100.00;98644.00;6025492;29;96430;-53
2024/02/28 00:17:32;;;;;;;;;45.00;36.20;;;;;16.55;100.00;98648.38;6045469;28;96381;-53
2024/02/28 00:20:35;;;;;;;;;43.25;36.00;;;;;16.56;100.00;98652.72;6048197;28;96599;-54
2024/02/28 00:23:40;;;;;;;;;45.00;36.00;;;;;16.60;100.00;98649.25;6048936;28;96657;-53
2024/02/28 00:26:44;;;;;;;;;43.50;35.25;;;;;16.60;100.00;98656.59;6048882;28;96298;-53
2024/02/28 00:29:47;;;;;;;;;43.50;35.00;;;;;16.51;100.00;98645.38;6048901;28;96758;-53
2024/02/28 00:32:50;;;;;;;;;39.60;33.00;;;;;16.60;100.00;98662.84;6032933;28;96312;-52
2024/02/28 00:35:54;;;;;;;;;40.40;33.60;;;;;16.66;100.00;98658.25;6048633;28;96950;-53
2024/02/28 00:38:58;;;;;;;;;41.60;35.20;;;;;16.67;100.00;98659.88;6048704;28;96332;-53
2024/02/28 00:42:01;;;;;;;;;38.00;33.00;;;;;16.66;100.00;98648.19;6053716;28;96259;-53
2024/02/28 00:45:05;;;;;;;;;40.00;35.00;;;;;16.64;100.00;98652.25;6036497;28;96303;-53
2024/02/28 00:48:08;;;;;;;;;39.60;33.00;;;;;16.62;100.00;98655.22;6049057;28;96518;-53
2024/02/28 00:51:11;;;;;;;;;38.80;33.20;;;;;16.56;100.00;98656.28;6048716;28;96413;-53
2024/02/28 00:54:16;;;;;;;;;38.40;33.00;;;;;16.54;100.00;98663.06;6031600;28;96358;-53
2024/02/28 00:57:19;;;;;;;;;36.80;32.00;;;;;16.54;100.00;98663.06;6054079;28;96345;-53
2024/02/28 01:00:22;;;;;;;;;37.20;32.20;;;;;16.48;100.00;98665.75;6051550;28;96371;-53
2024/02/28 01:03:26;;;;;;;;;36.60;31.60;;;;;16.47;100.00;98658.66;6048405;28;96562;-53
2024/02/28 01:06:29;;;;;;;;;36.00;32.00;;;;;16.47;100.00;98655.94;6050721;28;96366;-53
2024/02/28 01:09:33;;;;;;;;;37.00;33.00;;;;;16.47;100.00;98666.81;6071677;28;96713;-53
2024/02/28 01:12:37;;;;;;;;;36.20;32.00;;;;;16.46;100.00;98658.94;6064117;28;96463;-53
2024/02/28 01:15:41;;;;;;;;;38.75;33.00;;;;;16.40;100.00;98657.28;6055742;28;96417;-54
2024/02/28 01:18:44;;;;;;;;;38.40;33.00;;;;;16.40;100.00;98658.09;6019490;29;97178;-54
2024/02/28 01:21:47;;;;;;;;;37.50;32.00;;;;;16.42;100.00;98666.81;6037710;28;96388;-55
2024/02/28 01:24:52;;;;;;;;;36.00;32.00;;;;;16.45;100.00;98665.47;6044219;28;96398;-55
2024/02/28 01:27:57;;;;;;;;;36.25;31.75;;;;;16.34;100.00;98648.28;6044246;28;96302;-55
2024/02/28 01:31:01;;;;;;;;;36.00;32.00;;;;;16.44;100.00;98664.66;6012713;28;98862;-55
2024/02/28 01:34:04;;;;;;;;;37.40;33.00;;;;;16.45;100.00;98655.41;6056757;28;96850;-55
2024/02/28 01:37:07;;;;;;;;;38.50;33.00;;;;;16.45;100.00;98662.75;6045464;28;97545;-55
2024/02/28 01:40:13;;;;;;;;;40.60;32.60;;;;;16.42;100.00;98660.53;6032064;28;96449;-54
2024/02/28 01:43:17;;;;;;;;;39.00;33.00;;;;;16.40;100.00;98670.88;6054395;28;96346;-54
2024/02/28 01:46:25;;;;;;;;;35.50;31.00;;;;;16.38;100.00;98665.69;6030569;28;96709;-54
2024/02/28 01:49:28;;;;;;;;;37.60;33.00;;;;;16.24;100.00;98663.72;6044486;28;96311;-55
2024/02/28 01:52:31;;;;;;;;;36.00;32.00;;;;;16.19;100.00;98667.22;6044423;28;97156;-54
2024/02/28 01:55:36;;;;;;;;;36.60;32.40;;;;;16.17;100.00;98660.44;6044108;28;96288;-54
2024/02/28 01:58:40;;;;;;;;;34.40;31.00;;;;;16.15;100.00;98646.25;6043892;28;96417;-55
2024/02/28 02:01:43;;;;;;;;;35.00;31.60;;;;;15.98;100.00;98643.69;6046251;28;96843;-53
2024/02/28 02:04:47;;;;;;;;;33.00;30.20;;;;;16.02;100.00;98663.88;6056466;23;96356;-58
2024/02/28 02:07:51;;;;;;;;;37.40;32.00;;;;;15.89;100.00;98656.97;6014507;28;96797;-57
2024/02/28 02:10:56;;;;;;;;;34.00;32.00;;;;;15.87;100.00;98655.63;6020741;29;96385;-57
2024/02/28 02:13:59;;;;;;;;;35.60;31.80;;;;;15.80;100.00;98655.81;6020061;29;96482;-57
2024/02/28 02:17:02;;;;;;;;;36.00;30.40;;;;;15.73;100.00;98663.41;6020400;29;96424;-57
2024/02/28 02:20:07;;;;;;;;;35.20;31.60;;;;;15.66;100.00;98660.06;6033413;28;96290;-57
2024/02/28 02:23:12;;;;;;;;;36.00;31.60;;;;;15.47;100.00;98623.47;6020163;29;96455;-57
2024/02/28 02:26:15;;;;;;;;;40.00;33.00;;;;;15.57;100.00;98648.88;6020512;29;96308;-57
2024/02/28 02:29:18;;;;;;;;;39.00;33.00;;;;;15.50;100.00;98650.13;6027906;28;96293;-57
2024/02/28 02:32:21;;;;;;;;;39.20;34.20;;;;;15.39;100.00;98660.09;6005153;29;96417;-56
2024/02/28 02:35:24;;;;;;;;;42.00;33.00;;;;;15.37;100.00;98661.41;5996929;29;96468;-56
2024/02/28 02:38:29;;;;;;;;;42.75;36.00;;;;;15.29;100.00;98649.16;6007465;28;96960;-56
2024/02/28 02:41:32;;;;;;;;;43.00;35.00;;;;;15.37;100.00;98659.53;6019398;29;96809;-56
2024/02/28 02:44:35;;;;;;;;;38.20;33.20;;;;;15.36;100.00;98657.88;6019974;29;96520;-58
2024/02/28 02:47:38;;;;;;;;;45.00;37.00;;;;;15.42;100.00;98654.13;6032511;28;96488;-58
2024/02/28 02:50:41;;;;;;;;;42.00;34.40;;;;;15.41;100.00;98655.22;6019516;29;96946;-58
2024/02/28 02:53:46;;;;;;;;;39.60;34.00;;;;;15.46;100.00;98660.69;6019884;28;96938;-57
2024/02/28 02:56:49;;;;;;;;;43.40;35.40;;;;;15.48;100.00;98663.16;6007226;29;97089;-56
2024/02/28 02:59:52;;;;;;;;;40.67;34.33;;;;;15.50;100.00;98656.38;6028188;28;96475;-56
2024/02/28 03:02:55;;;;;;;;;38.00;33.00;;;;;15.53;100.00;98666.78;5978946;29;97057;-56
2024/02/28 03:05:58;;;;;;;;;36.60;33.00;;;;;15.54;100.00;98667.59;5997874;29;96891;-56
2024/02/28 03:09:04;;;;;;;;;38.80;34.00;;;;;15.51;100.00;98666.19;6019376;29;97125;-56
2024/02/28 03:12:07;;;;;;;;;39.60;33.00;;;;;15.48;100.00;98655.84;6019783;28;96418;-56
2024/02/28 03:15:11;;;;;;;;;40.60;32.80;;;;;15.48;100.00;98658.53;6006953;28;96330;-56
2024/02/28 03:18:15;;;;;;;;;43.75;36.00;;;;;15.47;100.00;98659.63;6027545;28;97149;-57
2024/02/28 03:21:18;;;;;;;;;43.80;36.00;;;;;15.48;100.00;98663.97;6058833;28;96278;-56
2024/02/28 03:24:22;;;;;;;;;42.00;34.00;;;;;15.48;100.00;98666.69;6072095;28;96964;-56
2024/02/28 03:27:25;;;;;;;;;42.00;35.00;;;;;15.47;100.00;98665.06;6048325;28;96417;-58
2024/02/28 03:30:29;;;;;;;;;45.00;35.00;;;;;15.48;100.00;98669.41;6057999;28;96107;-56
2024/02/28 03:33:33;;;;;;;;;45.00;35.40;;;;;15.47;100.00;98673.22;6058123;28;96395;-58
2024/02/28 03:36:36;;;;;;;;;43.00;35.00;;;;;15.48;100.00;98672.13;6054015;28;97139;-58
2024/02/28 03:39:41;;;;;;;;;45.00;36.00;;;;;15.49;100.00;98681.09;6044602;28;96318;-59
2024/02/28 03:42:44;;;;;;;;;40.60;34.60;;;;;15.50;100.00;98678.09;6043398;28;96913;-57
2024/02/28 03:45:48;;;;;;;;;45.00;35.00;;;;;15.41;100.00;98665.25;6029074;28;98466;-58
2024/02/28 03:48:51;;;;;;;;;39.40;33.00;;;;;15.40;100.00;98678.00;6058643;28;97371;-56
2024/02/28 03:51:54;;;;;;;;;42.80;35.00;;;;;15.27;100.00;98678.44;6074221;28;96306;-56
2024/02/28 03:54:59;;;;;;;;;45.00;36.80;;;;;15.33;100.00;98690.19;6077604;28;96520;-58
2024/02/28 03:58:03;;;;;;;;;38.00;32.60;;;;;15.25;100.00;98677.88;6076033;28;96416;-56
2024/02/28 04:01:06;;;;;;;;;40.25;34.25;;;;;15.20;100.00;98682.47;6054603;28;96332;-56
2024/02/28 04:04:09;;;;;;;;;44.33;35.33;;;;;15.14;100.00;98693.25;6056978;28;96373;-56
2024/02/28 04:07:12;;;;;;;;;40.40;34.60;;;;;15.08;100.00;98675.28;6036017;28;96320;-59
2024/02/28 04:10:17;;;;;;;;;45.00;36.00;;;;;15.19;100.00;98692.50;6040685;28;97117;-58
2024/02/28 04:13:20;;;;;;;;;38.40;34.00;;;;;15.20;100.00;98698.75;6045615;28;98492;-57
2024/02/28 04:16:23;;;;;;;;;40.25;34.00;;;;;15.20;100.00;98699.53;6052074;28;96577;-57
2024/02/28 04:19:26;;;;;;;;;45.00;36.00;;;;;15.25;100.00;98707.75;6036568;28;98724;-57
2024/02/28 04:22:29;;;;;;;;;41.60;34.00;;;;;15.28;100.00;98709.97;6053456;28;96477;-58
2024/02/28 04:25:34;;;;;;;;;42.50;33.50;;;;;15.28;100.00;98712.69;6053443;28;96678;-58
2024/02/28 04:28:37;;;;;;;;;45.00;36.00;;;;;15.28;100.00;98709.97;6017019;28;96973;-57
2024/02/28 04:31:40;;;;;;;;;43.80;35.40;;;;;15.31;100.00;98706.72;6023574;28;96919;-58
2024/02/28 04:34:43;;;;;;;;;42.50;36.00;;;;;15.11;100.00;98668.50;6038914;28;96389;-58
2024/02/28 04:37:47;;;;;;;;;42.60;35.60;;;;;15.24;100.00;98684.41;6024775;28;96942;-57
2024/02/28 04:40:52;;;;;;;;;37.00;30.60;;;;;15.34;100.00;98699.97;6030025;28;96431;-58
2024/02/28 04:43:55;;;;;;;;;45.00;36.00;;;;;15.36;100.00;98698.63;6003976;29;96675;-58
2024/02/28 04:46:58;;;;;;;;;46.25;37.75;;;;;15.37;100.00;98699.44;6016339;28;96467;-57
2024/02/28 04:50:01;;;;;;;;;41.00;35.00;;;;;15.38;100.00;98696.50;6020759;28;96912;-57
2024/02/28 04:53:04;;;;;;;;;45.00;36.25;;;;;15.39;100.00;98691.88;6012391;29;96585;-60
2024/02/28 04:56:09;;;;;;;;;49.20;39.40;;;;;15.39;100.00;98694.59;6011393;28;97318;-58
2024/02/28 04:59:13;;;;;;;;;49.40;38.00;;;;;15.30;100.00;98701.53;6020106;28;97383;-58
2024/02/28 05:02:16;;;;;;;;;49.33;40.33;;;;;15.25;100.00;98706.94;6019067;28;96529;-57
2024/02/28 05:05:20;;;;;;;;;47.00;39.80;;;;;15.17;100.00;98681.06;6011515;28;96413;-57
2024/02/28 05:08:23;;;;;;;;;49.80;39.80;;;;;15.28;100.00;98696.38;6011682;28;98000;-57
2024/02/28 05:11:27;;;;;;;;;50.00;40.00;;;;;15.31;100.00;98700.47;6013635;28;96655;-57
2024/02/28 05:14:30;;;;;;;;;53.00;42.00;;;;;15.21;100.00;98701.19;6015090;29;96245;-57
2024/02/28 05:17:34;;;;;;;;;50.80;41.40;;;;;15.22;100.00;98708.28;6014839;28;96298;-57
2024/02/28 05:20:37;;;;;;;;;50.40;40.40;;;;;15.21;100.00;98706.63;6019002;28;97170;-57
2024/02/28 05:23:40;;;;;;;;;52.00;42.40;;;;;15.16;100.00;98709.28;6011136;28;96413;-57
2024/02/28 05:26:45;;;;;;;;;55.00;43.00;;;;;15.03;100.00;98685.25;6012193;28;96236;-57
2024/02/28 05:29:48;;;;;;;;;52.50;42.00;;;;;15.14;100.00;98708.72;6011426;28;96369;-57
2024/02/28 05:32:52;;;;;;;;;56.50;44.00;;;;;15.18;100.00;98726.16;6021074;29;96445;-57
2024/02/28 05:35:55;;;;;;;;;56.00;44.60;;;;;15.10;100.00;98732.06;6018534;28;96423;-56
2024/02/28 05:39:00;;;;;;;;;55.40;44.00;;;;;15.07;100.00;98733.34;6019807;29;96893;-56
2024/02/28 05:42:06;;;;;;;;;57.00;45.00;;;;;15.08;100.00;98729.56;6017435;28;96385;-56
2024/02/28 05:45:10;;;;;;;;;58.00;45.00;;;;;15.12;100.00;98748.88;6006870;28;97378;-56
2024/02/28 05:48:13;;;;;;;;;55.40;44.00;;;;;15.13;100.00;98743.22;5998455;29;96587;-56
2024/02/28 05:51:17;;;;;;;;;55.00;44.00;;;;;15.13;100.00;98753.25;6012740;29;96526;-56
2024/02/28 05:54:20;;;;;;;;;57.20;45.00;;;;;15.13;100.00;98753.25;6017776;28;96885;-56
2024/02/28 05:57:24;;;;;;;;;52.40;43.00;;;;;15.17;100.00;98762.53;6019120;29;97369;-56
2024/02/28 06:00:28;;;;;;;;;51.60;41.00;;;;;15.27;100.00;98764.53;6018551;29;97647;-56
2024/02/28 06:03:31;;;;;;;;;52.40;42.00;;;;;15.32;100.00;98751.84;6018326;29;96531;-56
2024/02/28 06:06:34;;;;;;;;;52.40;42.00;;;;;15.33;100.00;98742.63;6021900;28;96396;-56
2024/02/28 06:09:38;;;;;;;;;53.75;43.00;;;;;15.51;100.00;98755.88;6022523;28;96938;-56
2024/02/28 06:12:42;;;;;;;;;50.80;41.00;;;;;15.57;100.00;98751.31;6020417;28;96935;-56
2024/02/28 06:15:45;;;;;;;;;52.80;40.80;;;;;15.68;100.00;98752.22;6012189;28;96470;-56
2024/02/28 06:18:49;;;;;;;;;52.00;42.00;;;;;15.76;100.00;98749.84;6020272;29;96576;-57
2024/02/28 06:21:52;;;;;;;;;54.80;43.60;;;;;15.90;100.00;98761.94;6020541;29;96394;-57
2024/02/28 06:24:55;;;;;;;;;54.50;43.50;;;;;15.97;100.00;98769.88;6019998;29;96477;-57
2024/02/28 06:28:01;;;;;;;;;60.00;47.00;;;;;16.03;100.00;98769.63;6020201;29;97023;-57
2024/02/28 06:31:05;;;;;;;;;55.80;43.20;;;;;16.01;100.00;98755.50;6020559;29;96327;-57
2024/02/28 06:34:08;;;;;;;;;55.00;44.00;;;;;16.29;100.00;98770.66;6018931;29;96436;-57
2024/02/28 06:37:13;;;;;;;;;54.20;43.00;;;;;16.46;100.00;98773.22;6024667;28;96413;-57
2024/02/28 06:40:16;;;;;;;;;52.00;42.00;;;;;16.60;100.00;98757.28;6030493;28;96510;-57
2024/02/28 06:43:21;;;;;;;;;52.60;42.60;;;;;16.95;100.00;98781.97;6019690;29;96351;-57
2024/02/28 06:46:24;;;;;;;;;50.33;42.33;;;;;17.46;100.00;98787.59;6018928;29;96809;-59
2024/02/28 06:49:28;;;;;;;;;53.40;42.40;;;;;17.66;100.00;98763.13;6018007;29;97495;-59
2024/02/28 06:52:31;;;;;;;;;52.00;42.00;;;;;17.82;100.00;98783.06;6018248;29;96346;-59
2024/02/28 06:55:34;;;;;;;;;52.00;41.80;;;;;17.78;100.00;98781.97;6017825;29;97107;-59
2024/02/28 06:58:39;;;;;;;;;49.00;40.50;;;;;17.69;100.00;98798.06;6018139;29;96981;-59
2024/02/28 07:01:42;;;;;;;;;49.75;39.50;;;;;17.57;100.00;98792.00;6018817;29;96669;-59
2024/02/28 07:04:45;;;;;;;;;50.80;40.80;;;;;17.51;100.00;98801.22;6022958;28;96635;-59
2024/02/28 07:07:48;;;;;;;;;52.40;40.40;;;;;17.42;100.00;98789.22;6027727;29;96422;-59
2024/02/28 07:10:53;;;;;;;;;49.00;41.00;;;;;17.38;100.00;98802.56;6027394;29;96946;-59
2024/02/28 07:14:01;;;;;;;;;47.00;38.00;;;;;17.39;100.00;98795.22;6027249;28;96974;-59
2024/02/28 07:17:06;;;;;;;;;48.60;38.60;;;;;17.39;100.00;98798.75;6027466;29;96905;-59
2024/02/28 07:20:11;;;;;;;;;43.40;37.40;;;;;17.43;100.00;98797.13;6026790;29;96894;-58
2024/02/28 07:23:14;;;;;;;;;50.80;40.20;;;;;17.48;100.00;98799.88;6026986;29;96514;-58
2024/02/28 07:26:17;;;;;;;;;48.80;39.40;;;;;17.54;100.00;98800.72;6027267;29;97077;-58
2024/02/28 07:29:30;;;;;;;;;51.60;40.60;;;;;17.73;100.00;98799.97;6027356;29;96538;-58
2024/02/28 07:32:34;;;;;;;;;45.00;38.00;;;;;17.90;100.00;98798.88;6026782;29;96224;-58
2024/02/28 07:35:45;;;;;;;;;44.60;36.00;;;;;17.98;100.00;98799.19;6018015;29;96298;-57
2024/02/28 07:38:49;;;;;;;;;45.00;37.20;;;;;17.98;100.00;98803.81;6026996;29;96481;-59
2024/02/28 07:41:52;;;;;;;;;46.25;37.00;;;;;17.92;100.00;98794.81;6039321;28;96306;-57
2024/02/28 07:45:00;;;;;;;;;49.00;39.40;;;;;17.90;100.00;98802.44;6027006;29;96258;-57
2024/02/28 07:48:03;;;;;;;;;48.20;39.60;;;;;17.88;100.00;98803.81;6020268;28;96390;-57
2024/02/28 07:51:07;;;;;;;;;48.00;39.40;;;;;17.87;100.00;98810.34;6003197;29;96429;-58
2024/02/28 07:54:10;;;;;;;;;49.00;39.00;;;;;17.86;100.00;98801.34;6023723;29;96374;-58
2024/02/28 07:57:15;;;;;;;;;56.00;41.75;;;;;17.87;100.00;98803.00;6048519;28;97659;-58
2024/02/28 08:00:20;;;;;;;;;52.00;43.00;;;;;17.87;100.00;98800.25;6044337;28;96394;-58
2024/02/28 08:03:23;;;;;;;;;53.00;42.00;;;;;17.84;100.00;98805.44;6056546;28;96561;-57
2024/02/28 08:06:26;;;;;;;;;55.50;44.00;;;;;17.86;100.00;98808.69;6057454;28;96386;-57
2024/02/28 08:09:30;;;;;;;;;58.00;45.40;;;;;17.89;100.00;98805.41;6041079;28;97226;-58
2024/02/28 08:12:34;;;;;;;;;54.60;44.00;;;;;17.92;100.00;98807.63;6059848;28;96422;-57
2024/02/28 08:15:38;;;;;;;;;57.20;45.80;;;;;17.93;100.00;98799.19;6045563;28;96907;-57
2024/02/28 08:18:41;;;;;;;;;53.40;42.40;;;;;17.97;100.00;98805.72;6035500;28;99635;-58
2024/02/28 08:21:45;;;;;;;;;55.00;43.00;;;;;18.00;100.00;98804.34;6053714;28;96199;-59
2024/02/28 08:24:52;;;;;;;;;53.00;41.20;;;;;18.01;100.00;98806.00;6053432;28;96933;-58
2024/02/28 08:27:55;;;;;;;;;56.60;43.40;;;;;18.00;100.00;98809.81;6058739;28;96408;-58
2024/02/28 08:31:00;;;;;;;;;55.80;45.00;;;;;17.99;100.00;98824.53;6059127;28;97728;-57
2024/02/28 08:34:04;;;;;;;;;56.00;44.00;;;;;17.95;100.00;98812.53;6037060;28;98601;-58
2024/02/28 08:37:07;;;;;;;;;56.00;44.33;;;;;17.94;100.00;98825.34;6049520;28;96518;-57
2024/02/28 08:40:12;;;;;;;;;56.25;44.50;;;;;17.79;100.00;98827.25;6041222;28;96524;-55
2024/02/28 08:43:15;;;;;;;;;55.40;44.40;;;;;17.66;100.00;98821.22;6044918;28;96572;-57
2024/02/28 08:46:19;;;;;;;;;53.00;43.50;;;;;17.63;100.00;98829.13;6039094;28;96989;-59
2024/02/28 08:49:23;;;;;;;;;55.20;43.40;;;;;17.63;100.00;98823.66;6111745;23;96548;-56
2024/02/28 08:52:26;;;;;;;;;49.80;41.00;;;;;17.69;100.00;98828.84;6076825;28;96342;-58
2024/02/28 08:55:29;;;;;;;;;54.60;44.00;;;;;17.78;100.00;98823.69;6083379;28;96391;-59
2024/02/28 08:58:33;;;;;;;;;56.00;44.00;;;;;17.72;100.00;98806.50;6100185;28;97693;-60
2024/02/28 09:01:37;;;;;;;;;57.00;44.00;;;;;17.95;100.00;98828.91;6099762;28;96283;-59
2024/02/28 09:04:41;;;;;;;;;58.00;44.00;;;;;18.03;100.00;98831.09;6100140;28;96321;-60
2024/02/28 09:07:44;;;;;;;;;55.40;44.00;;;;;18.09;100.00;98824.53;6081309;28;96397;-58
2024/02/28 09:10:47;;;;;;;;;53.40;43.60;;;;;18.11;100.00;98828.66;6080604;28;96577;-59
2024/02/28 09:13:50;;;;;;;;;56.60;44.60;;;;;18.16;100.00;98836.03;6096197;28;96529;-58
2024/02/28 09:17:02;;;;;;;;;57.50;44.00;;;;;18.22;100.00;98843.13;6078237;28;96325;-59
2024/02/28 09:20:07;;;;;;;;;57.00;44.00;;;;;18.31;100.00;98840.66;6060516;28;96326;-58
2024/02/28 09:23:11;;;;;;;;;57.00;45.20;;;;;18.39;100.00;98840.09;6051556;28;96297;-59
2024/02/28 09:26:14;;;;;;;;;53.40;43.20;;;;;18.50;100.00;98837.09;6052351;28;96325;-60
2024/02/28 09:29:17;;;;;;;;;56.60;45.00;;;;;18.59;100.00;98845.59;6051934;28;96594;-57
2024/02/28 09:32:21;;;;;;;;;51.25;41.75;;;;;18.59;100.00;98821.00;6036250;28;96368;-59
2024/02/28 09:35:24;;;;;;;;;52.00;43.40;;;;;18.76;100.00;98835.19;6035750;28;96353;-57
2024/02/28 09:38:29;;;;;;;;;52.00;42.00;;;;;18.74;100.00;98848.31;6046738;28;98799;-59
2024/02/28 09:41:32;;;;;;;;;53.25;43.00;;;;;18.71;100.00;98840.69;6066876;28;96433;-60
2024/02/28 09:44:37;;;;;;;;;53.20;42.40;;;;;18.71;100.00;98840.69;6051829;28;96285;-58
2024/02/28 09:47:41;;;;;;;;;52.00;41.20;;;;;18.78;100.00;98845.84;6056184;28;96926;-59
2024/02/28 09:50:46;;;;;;;;;50.00;40.00;;;;;18.88;100.00;98837.63;6055452;28;96943;-58
2024/02/28 09:53:49;;;;;;;;;51.40;41.00;;;;;18.82;100.00;98835.97;6075568;28;96316;-58
2024/02/28 09:56:53;;;;;;;;;52.00;41.00;;;;;18.78;100.00;98846.66;6058506;28;96687;-60
2024/02/28 09:59:57;;;;;;;;;49.00;40.00;;;;;18.85;100.00;98839.00;6072969;28;96272;-56
2024/02/28 10:03:02;;;;;;;;;53.00;40.00;;;;;18.85;100.00;98841.72;6020232;28;96354;-59
2024/02/28 10:06:06;;;;;;;;;49.80;38.40;;;;;18.91;100.00;98850.75;6051971;28;96327;-59
2024/02/28 10:09:11;;;;;;;;;47.00;38.60;;;;;18.98;100.00;98845.78;6063943;28;96428;-58
2024/02/28 10:12:15;;;;;;;;;47.00;39.00;;;;;19.07;100.00;98854.22;6074523;28;96917;-59
2024/02/28 10:15:18;;;;;;;;;51.60;41.40;;;;;19.13;100.00;98856.69;6073416;28;96449;-57
2024/02/28 10:18:23;;;;;;;;;50.00;38.00;;;;;19.24;100.00;98858.28;6031185;28;96392;-57
2024/02/28 10:21:26;;;;;;;;;48.60;39.60;;;;;19.34;100.00;98860.19;6019944;29;96990;-57
2024/02/28 10:24:29;;;;;;;;;48.00;39.00;;;;;19.42;100.00;98867.78;6019940;29;96316;-57
2024/02/28 10:27:34;;;;;;;;;48.50;39.00;;;;;19.50;100.00;98867.22;6002566;29;96711;-57
2024/02/28 10:30:40;;;;;;;;;50.00;40.00;;;;;19.59;100.00;98864.75;6019638;29;96490;-57
2024/02/28 10:33:45;;;;;;;;;51.60;40.80;;;;;19.67;100.00;98853.22;6019158;28;97023;-57
2024/02/28 10:36:49;;;;;;;;;50.00;42.00;;;;;19.72;100.00;98864.13;6031404;28;97063;-57
2024/02/28 10:39:54;;;;;;;;;51.40;40.00;;;;;19.77;100.00;98853.16;6029856;28;97567;-57
2024/02/28 10:42:58;;;;;;;;;54.00;41.75;;;;;19.84;100.00;98856.41;6018506;29;96607;-57
2024/02/28 10:46:02;;;;;;;;;50.25;41.00;;;;;19.87;100.00;98856.66;6019335;29;96450;-57
2024/02/28 10:49:10;;;;;;;;;45.00;37.60;;;;;19.94;100.00;98861.78;6019476;29;96409;-57
2024/02/28 10:52:15;;;;;;;;;51.00;42.00;;;;;20.02;100.00;98863.13;6019612;29;96525;-57
2024/02/28 10:55:23;;;;;;;;;44.60;37.00;;;;;20.02;100.00;98863.13;6016783;29;96450;-57
2024/02/28 10:58:34;;;;;;;;;40.40;33.40;;;;;20.03;100.00;98860.13;5999053;29;96714;-57
2024/02/28 11:01:41;;;;;;;;;36.60;32.00;;;;;20.05;100.00;98857.91;6016497;29;96950;-57
2024/02/28 11:04:46;;;;;;;;;34.00;30.00;;;;;20.10;100.00;98866.09;6016217;29;96405;-57
2024/02/28 11:07:52;;;;;;;;;40.00;33.00;;;;;20.15;100.00;98870.69;6016001;29;96721;-57
2024/02/28 11:10:56;;;;;;;;;36.75;32.50;;;;;20.21;100.00;98861.34;6019363;29;96317;-57
2024/02/28 11:14:01;;;;;;;;;37.20;32.20;;;;;20.28;100.00;98870.88;6019083;29;96891;-57
2024/02/28 11:17:05;;;;;;;;;37.40;32.00;;;;;20.35;100.00;98873.31;6019214;29;96338;-57
2024/02/28 11:20:16;;;;;;;;;28.00;27.00;;;;;20.45;100.00;98872.44;6019123;29;96433;-57
2024/02/28 11:23:19;;;;;;;;;25.00;23.60;;;;;20.47;100.00;98865.56;6018358;29;96478;-57
2024/02/28 11:26:22;;;;;;;;;23.60;21.00;;;;;20.52;100.00;98864.72;6026880;28;96335;-59
2024/02/28 11:29:27;;;;;;;;;22.20;19.60;;;;;20.49;100.00;98859.78;6050315;28;96442;-61
2024/02/28 11:32:32;;;;;;;;;23.33;21.33;;;;;20.57;100.00;98867.41;6050198;28;96444;-59
2024/02/28 11:35:37;;;;;;;;;22.60;20.00;;;;;20.62;100.00;98859.16;6050692;28;96324;-59
2024/02/28 11:38:41;;;;;;;;;22.50;19.00;;;;;20.65;100.00;98867.59;6050489;28;96877;-59
2024/02/28 11:41:46;;;;;;;;;21.00;21.00;;;;;20.70;100.00;98866.75;6050241;28;96290;-58
2024/02/28 11:44:55;;;;;;;;;24.00;22.60;;;;;20.66;100.00;98858.28;6049860;28;96430;-58
2024/02/28 11:48:04;;;;;;;;;22.60;20.60;;;;;20.59;100.00;98841.34;6050781;23;96509;-86
2024/02/28 11:51:11;;;;;;;;;22.00;20.40;;;;;19.80;100.00;98705.69;5979591;29;97031;-89
2024/02/28 11:54:15;;;;;;;;;26.00;24.00;;;;;20.54;100.00;98835.91;5969126;29;96575;-88
2024/02/28 11:57:18;;;;;;;;;22.60;22.00;;;;;20.59;100.00;98824.91;5983765;29;99015;-88
2024/02/28 12:00:22;;;;;;;;;23.75;20.25;;;;;20.91;100.00;98859.97;5983766;29;96451;-89
2024/02/28 12:03:26;;;;;;;;;22.40;22.00;;;;;20.87;100.00;98844.38;5968229;29;96793;-88
2024/02/28 12:06:31;;;;;;;;;22.80;21.00;;;;;20.79;100.00;98836.78;5983365;29;96385;-88
2024/02/28 12:09:35;;;;;;;;;21.33;19.67;;;;;21.01;100.00;98864.53;5983398;29;96519;-88
2024/02/28 12:12:45;;;;;;;;;20.00;19.00;;;;;20.84;100.00;98843.03;5997616;29;97109;-88
2024/02/28 12:15:49;;;;;;;;;21.40;20.00;;;;;21.08;100.00;98859.50;5990857;29;98159;-88
2024/02/28 12:18:53;;;;;;;;;22.50;20.50;;;;;21.07;100.00;98866.91;5984973;29;96337;-88
2024/02/28 12:21:58;;;;;;;;;20.20;19.20;;;;;19.84;100.00;98698.53;5969303;29;99715;-89
2024/02/28 12:25:04;;;;;;;;;34.40;30.00;;;;;19.62;100.00;98680.94;5973657;29;96258;-88
2024/02/28 12:28:08;;;;;;;;;36.20;33.00;;;;;20.99;100.00;98862.06;5968921;29;96385;-89
2024/02/28 12:31:13;;;;;;;;;34.00;32.00;;;;;20.25;100.00;98736.50;5968244;29;99174;-88
2024/02/28 12:34:16;;;;;;;;;49.00;38.00;;;;;21.11;100.00;98862.47;6170060;23;98806;-59
2024/02/28 12:37:21;;;;;;;;;49.40;39.00;;;;;21.09;100.00;98861.13;6010764;29;96362;-59
2024/02/28 12:40:25;;;;;;;;;42.00;33.00;;;;;21.07;100.00;98860.59;5997643;29;96324;-59
2024/02/28 12:43:31;;;;;;;;;45.00;36.00;;;;;21.07;100.00;98866.91;5998070;29;97696;-58
2024/02/28 12:46:35;;;;;;;;;48.00;39.00;;;;;20.99;100.00;98847.53;5998098;29;96331;-57
2024/02/28 12:49:38;;;;;;;;;48.60;38.60;;;;;21.13;100.00;98871.25;5997983;29;96386;-58
2024/02/28 12:52:43;;;;;;;;;47.60;39.00;;;;;21.15;100.00;98868.25;5996940;29;96829;-58
2024/02/28 12:55:46;;;;;;;;;49.00;38.40;;;;;21.14;100.00;98863.84;6009864;29;97546;-58
2024/02/28 12:58:49;;;;;;;;;47.25;39.00;;;;;21.19;100.00;98872.03;5992169;29;96425;-57
2024/02/28 13:01:52;;;;;;;;;46.00;38.00;;;;;21.21;100.00;98863.53;5994748;29;96284;-58
2024/02/28 13:04:56;;;;;;;;;47.00;38.40;;;;;21.21;100.00;98869.00;5990561;29;96640;-59
2024/02/28 13:08:00;;;;;;;;;50.00;40.00;;;;;21.20;100.00;98875.59;5991551;29;96398;-57
2024/02/28 13:11:04;;;;;;;;;47.00;38.00;;;;;21.16;100.00;98883.56;5988956;29;96780;-57
2024/02/28 13:14:08;;;;;;;;;48.60;38.00;;;;;21.15;100.00;98879.19;5992984;29;96703;-58
2024/02/28 13:17:12;;;;;;;;;46.00;38.00;;;;;21.09;100.00;98888.56;5997631;29;96329;-57
2024/02/28 13:20:15;;;;;;;;;47.60;38.00;;;;;20.87;100.00;98864.38;5997393;29;96724;-58
2024/02/28 13:23:19;;;;;;;;;46.40;37.80;;;;;20.95;100.00;98879.38;5997500;29;96520;-59
2024/02/28 13:26:23;;;;;;;;;45.40;37.60;;;;;20.92;100.00;98877.19;5996735;29;96808;-58
2024/02/28 13:29:26;;;;;;;;;46.25;37.25;;;;;20.85;100.00;98884.97;5997236;29;96358;-60
2024/02/28 13:32:30;;;;;;;;;48.60;38.00;;;;;20.76;100.00;98879.28;5989693;29;96317;-58
2024/02/28 13:35:33;;;;;;;;;48.75;39.00;;;;;20.69;100.00;98881.53;5991288;29;97592;-57
2024/02/28 13:38:37;;;;;;;;;43.75;36.75;;;;;20.63;100.00;98888.16;5995933;29;97136;-58
2024/02/28 13:41:41;;;;;;;;;40.40;35.00;;;;;20.54;100.00;98884.41;5995137;29;96970;-59
2024/02/28 13:44:44;;;;;;;;;43.75;36.00;;;;;20.43;100.00;98894.63;5999363;29;96955;-57
2024/02/28 13:47:47;;;;;;;;;38.60;32.60;;;;;20.36;100.00;98888.66;6006268;29;97025;-58
2024/02/28 13:50:51;;;;;;;;;41.00;33.60;;;;;20.28;100.00;98897.47;6000652;29;97540;-58
2024/02/28 13:53:55;;;;;;;;;39.75;33.75;;;;;20.21;100.00;98899.69;5995694;29;96686;-58
2024/02/28 13:56:58;;;;;;;;;34.00;31.50;;;;;20.18;100.00;98901.06;5995991;29;96577;-57